createdAt,value
2023-01-29T00:00:05.082Z,950.6
2023-01-29T00:01:06.898Z,950.6
2023-01-29T00:02:08.871Z,950.6
2023-01-29T00:03:11.199Z,950.6
2023-01-29T00:04:13.058Z,950.6
2023-01-29T00:05:28.929Z,950.6
2023-01-29T00:06:30.895Z,950.6
2023-01-29T00:07:32.733Z,950.6
2023-01-29T00:08:34.583Z,950.6
2023-01-29T00:09:36.386Z,950.7
2023-01-29T00:10:38.203Z,950.7
2023-01-29T00:11:40.035Z,950.7
2023-01-29T00:12:41.895Z,950.7
2023-01-29T00:13:43.626Z,950.7
2023-01-29T00:14:45.511Z,950.7
2023-01-29T00:15:47.335Z,950.7
2023-01-29T00:16:49.300Z,950.7
2023-01-29T00:17:51.247Z,950.7
2023-01-29T00:18:53.103Z,950.7
2023-01-29T00:19:55.036Z,950.8
2023-01-29T00:20:56.890Z,950.8
2023-01-29T00:21:58.743Z,950.8
2023-01-29T00:23:00.695Z,950.8
2023-01-29T00:24:02.764Z,950.8
2023-01-29T00:25:04.745Z,950.8
2023-01-29T00:26:06.554Z,950.8
2023-01-29T00:27:08.405Z,950.9
2023-01-29T00:28:10.361Z,950.9
2023-01-29T00:29:12.122Z,950.9
2023-01-29T00:30:15.044Z,950.9
2023-01-29T00:31:17.907Z,950.9
2023-01-29T00:32:20.532Z,950.9
2023-01-29T00:33:22.724Z,950.9
2023-01-29T00:34:24.733Z,950.9
2023-01-29T00:35:26.788Z,950.9
2023-01-29T00:36:28.754Z,950.9
2023-01-29T00:37:30.579Z,951
2023-01-29T00:38:32.335Z,950.9
2023-01-29T00:39:48.669Z,950.9
2023-01-29T00:40:50.426Z,951
2023-01-29T00:41:52.336Z,950.9
2023-01-29T00:42:54.173Z,951
2023-01-29T00:43:55.959Z,951
2023-01-29T00:44:57.887Z,951
2023-01-29T00:45:59.749Z,950.9
2023-01-29T00:47:01.784Z,950.9
2023-01-29T00:48:03.636Z,950.9
2023-01-29T00:49:05.479Z,950.9
2023-01-29T00:50:07.323Z,950.9
2023-01-29T00:51:09.284Z,950.9
2023-01-29T00:52:11.012Z,950.9
2023-01-29T00:53:12.870Z,950.9
2023-01-29T00:54:15.245Z,950.9
2023-01-29T00:55:17.198Z,950.9
2023-01-29T00:56:19.038Z,950.9
2023-01-29T00:57:20.789Z,950.9
2023-01-29T00:58:22.636Z,950.9
2023-01-29T00:59:24.505Z,950.9
2023-01-29T01:00:26.348Z,950.9
2023-01-29T01:01:28.398Z,950.9
2023-01-29T01:02:30.236Z,950.9
2023-01-29T01:03:31.998Z,950.8
2023-01-29T01:04:35.481Z,950.9
2023-01-29T01:05:37.552Z,950.9
2023-01-29T01:06:39.286Z,950.9
2023-01-29T01:07:41.246Z,950.9
2023-01-29T01:08:43.088Z,950.9
2023-01-29T01:09:44.929Z,950.9
2023-01-29T01:10:46.892Z,950.9
2023-01-29T01:11:48.739Z,950.9
2023-01-29T01:12:50.701Z,950.9
2023-01-29T01:13:52.559Z,950.9
2023-01-29T01:14:54.492Z,950.9
2023-01-29T01:15:56.608Z,950.9
2023-01-29T01:16:58.527Z,950.9
2023-01-29T01:18:00.353Z,950.9
2023-01-29T01:19:02.205Z,950.9
2023-01-29T01:20:04.043Z,950.9
2023-01-29T01:21:05.995Z,950.8
2023-01-29T01:22:07.849Z,950.8
2023-01-29T01:23:09.695Z,950.8
2023-01-29T01:24:11.776Z,950.8
2023-01-29T01:25:14.086Z,950.8
2023-01-29T01:26:15.970Z,950.8
2023-01-29T01:27:17.816Z,950.8
2023-01-29T01:28:19.664Z,950.8
2023-01-29T01:29:21.420Z,950.8
2023-01-29T01:30:23.268Z,950.8
2023-01-29T01:31:25.577Z,950.8
2023-01-29T01:32:27.709Z,950.8
2023-01-29T01:33:29.423Z,950.8
2023-01-29T01:34:31.172Z,950.8
2023-01-29T01:35:33.021Z,950.9
2023-01-29T01:36:34.882Z,950.8
2023-01-29T01:37:36.834Z,950.9
2023-01-29T01:38:38.674Z,950.8
2023-01-29T01:39:40.548Z,950.9
2023-01-29T01:40:42.476Z,950.9
2023-01-29T01:41:44.336Z,950.9
2023-01-29T01:42:46.187Z,950.9
2023-01-29T01:43:47.935Z,950.9
2023-01-29T01:44:49.781Z,950.9
2023-01-29T01:45:51.782Z,950.9
2023-01-29T01:46:53.995Z,950.9
2023-01-29T01:47:56.430Z,950.9
2023-01-29T01:48:58.305Z,950.9
2023-01-29T01:50:00.071Z,950.9
2023-01-29T01:51:01.911Z,950.9
2023-01-29T01:52:03.776Z,950.9
2023-01-29T01:53:05.598Z,950.9
2023-01-29T01:54:07.490Z,950.9
2023-01-29T01:55:09.309Z,951
2023-01-29T01:56:11.158Z,951
2023-01-29T01:57:13.112Z,951
2023-01-29T01:58:14.783Z,951
2023-01-29T01:59:16.709Z,951
2023-01-29T02:00:19.062Z,951
2023-01-29T02:01:20.963Z,951
2023-01-29T02:02:23.089Z,951.1
2023-01-29T02:03:25.158Z,951
2023-01-29T02:04:26.980Z,951.1
2023-01-29T02:05:28.833Z,951.1
2023-01-29T02:06:30.806Z,951.1
2023-01-29T02:07:32.599Z,951.1
2023-01-29T02:08:34.373Z,951.1
2023-01-29T02:09:36.336Z,951
2023-01-29T02:10:38.072Z,951
2023-01-29T02:11:39.922Z,951
2023-01-29T02:12:41.884Z,951
2023-01-29T02:13:43.592Z,951
2023-01-29T02:14:45.472Z,951
2023-01-29T02:15:47.171Z,951
2023-01-29T02:16:49.082Z,951
2023-01-29T02:17:51.262Z,951
2023-01-29T02:18:53.308Z,951
2023-01-29T02:19:55.131Z,951
2023-01-29T02:20:57.092Z,951.1
2023-01-29T02:21:59.053Z,951
2023-01-29T02:23:04.002Z,951.1
2023-01-29T02:24:06.446Z,951.1
2023-01-29T02:25:08.480Z,951.1
2023-01-29T02:26:10.336Z,951.1
2023-01-29T02:27:12.297Z,951.1
2023-01-29T02:28:14.159Z,951.1
2023-01-29T02:29:16.099Z,951.1
2023-01-29T02:30:19.048Z,951.1
2023-01-29T02:31:21.522Z,951.2
2023-01-29T02:32:23.491Z,951.1
2023-01-29T02:33:25.642Z,951.1
2023-01-29T02:34:27.619Z,951.2
2023-01-29T02:35:29.422Z,951.2
2023-01-29T02:36:31.287Z,951.2
2023-01-29T02:37:32.961Z,951.2
2023-01-29T02:38:34.778Z,951.2
2023-01-29T02:39:36.745Z,951.2
2023-01-29T02:40:38.592Z,951.2
2023-01-29T02:41:40.434Z,951.2
2023-01-29T02:42:42.282Z,951.2
2023-01-29T02:43:44.142Z,951.2
2023-01-29T02:44:46.083Z,951.2
2023-01-29T02:45:48.119Z,951.2
2023-01-29T02:46:50.103Z,951.2
2023-01-29T02:47:51.845Z,951.3
2023-01-29T02:48:53.588Z,951.3
2023-01-29T02:49:55.565Z,951.3
2023-01-29T02:50:57.500Z,951.3
2023-01-29T02:51:59.365Z,951.3
2023-01-29T02:53:01.190Z,951.3
2023-01-29T02:54:03.052Z,951.3
2023-01-29T02:55:04.899Z,951.3
2023-01-29T02:56:06.748Z,951.3
2023-01-29T02:57:08.572Z,951.3
2023-01-29T02:58:10.441Z,951.3
2023-01-29T02:59:12.302Z,951.3
2023-01-29T03:00:15.279Z,951.3
2023-01-29T03:01:18.068Z,951.3
2023-01-29T03:02:20.197Z,951.2
2023-01-29T03:03:22.030Z,951.3
2023-01-29T03:04:23.907Z,951.3
2023-01-29T03:05:25.777Z,951.3
2023-01-29T03:06:27.597Z,951.3
2023-01-29T03:07:29.450Z,951.3
2023-01-29T03:08:31.399Z,951.3
2023-01-29T03:09:33.088Z,951.3
2023-01-29T03:10:34.902Z,951.3
2023-01-29T03:11:36.853Z,951.3
2023-01-29T03:12:38.629Z,951.3
2023-01-29T03:13:40.455Z,951.3
2023-01-29T03:14:42.191Z,951.3
2023-01-29T03:15:44.050Z,951.3
2023-01-29T03:16:46.121Z,951.3
2023-01-29T03:17:47.947Z,951.3
2023-01-29T03:18:49.696Z,951.3
2023-01-29T03:19:51.448Z,951.3
2023-01-29T03:20:53.415Z,951.3
2023-01-29T03:21:55.299Z,951.3
2023-01-29T03:22:57.198Z,951.3
2023-01-29T03:23:59.055Z,951.4
2023-01-29T03:25:00.997Z,951.4
2023-01-29T03:26:02.653Z,951.4
2023-01-29T03:27:04.397Z,951.4
2023-01-29T03:28:06.241Z,951.4
2023-01-29T03:29:08.038Z,951.4
2023-01-29T03:30:09.943Z,951.4
2023-01-29T03:31:11.980Z,951.4
2023-01-29T03:32:14.085Z,951.4
2023-01-29T03:33:16.219Z,951.4
2023-01-29T03:34:18.083Z,951.4
2023-01-29T03:35:19.811Z,951.4
2023-01-29T03:36:21.689Z,951.4
2023-01-29T03:37:23.616Z,951.4
2023-01-29T03:38:25.457Z,951.4
2023-01-29T03:39:27.410Z,951.4
2023-01-29T03:40:29.269Z,951.4
2023-01-29T03:41:31.019Z,951.4
2023-01-29T03:42:32.867Z,951.4
2023-01-29T03:43:34.822Z,951.4
2023-01-29T03:44:36.663Z,951.4
2023-01-29T03:45:38.832Z,951.4
2023-01-29T03:46:41.091Z,951.4
2023-01-29T03:47:42.895Z,951.4
2023-01-29T03:48:47.538Z,951.4
2023-01-29T03:49:49.298Z,951.4
2023-01-29T03:50:51.031Z,951.4
2023-01-29T03:51:52.890Z,951.4
2023-01-29T03:52:54.854Z,951.3
2023-01-29T03:53:56.698Z,951.3
2023-01-29T03:54:58.560Z,951.4
2023-01-29T03:56:00.399Z,951.4
2023-01-29T03:57:02.245Z,951.4
2023-01-29T03:58:04.201Z,951.4
2023-01-29T03:59:06.018Z,951.4
2023-01-29T04:00:07.902Z,951.4
2023-01-29T04:01:09.857Z,951.4
2023-01-29T04:02:11.694Z,951.3
2023-01-29T04:03:13.550Z,951.4
2023-01-29T04:04:15.705Z,951.4
2023-01-29T04:05:17.671Z,951.4
2023-01-29T04:06:19.513Z,951.4
2023-01-29T04:07:21.464Z,951.4
2023-01-29T04:08:23.425Z,951.4
2023-01-29T04:09:25.239Z,951.4
2023-01-29T04:10:27.109Z,951.4
2023-01-29T04:11:28.968Z,951.4
2023-01-29T04:12:30.919Z,951.4
2023-01-29T04:13:32.845Z,951.4
2023-01-29T04:14:34.722Z,951.4
2023-01-29T04:15:36.568Z,951.4
2023-01-29T04:16:38.681Z,951.5
2023-01-29T04:17:40.692Z,951.5
2023-01-29T04:18:42.497Z,951.5
2023-01-29T04:19:44.376Z,951.5
2023-01-29T04:20:46.343Z,951.5
2023-01-29T04:21:48.110Z,951.5
2023-01-29T04:22:49.972Z,951.5
2023-01-29T04:23:51.772Z,951.5
2023-01-29T04:24:53.631Z,951.5
2023-01-29T04:25:55.588Z,951.5
2023-01-29T04:26:57.444Z,951.5
2023-01-29T04:27:59.308Z,951.5
2023-01-29T04:29:01.151Z,951.5
2023-01-29T04:30:02.977Z,951.5
2023-01-29T04:31:05.699Z,951.5
2023-01-29T04:32:07.745Z,951.5
2023-01-29T04:33:09.459Z,951.5
2023-01-29T04:34:11.304Z,951.5
2023-01-29T04:35:13.145Z,951.5
2023-01-29T04:36:15.002Z,951.5
2023-01-29T04:37:16.872Z,951.5
2023-01-29T04:38:18.685Z,951.5
2023-01-29T04:39:20.528Z,951.6
2023-01-29T04:40:22.399Z,951.6
2023-01-29T04:41:24.413Z,951.6
2023-01-29T04:42:26.245Z,951.5
2023-01-29T04:43:28.066Z,951.5
2023-01-29T04:44:29.903Z,951.5
2023-01-29T04:45:31.751Z,951.5
2023-01-29T04:46:33.604Z,951.6
2023-01-29T04:47:35.938Z,951.6
2023-01-29T04:48:37.925Z,951.5
2023-01-29T04:49:39.780Z,951.6
2023-01-29T04:50:41.619Z,951.5
2023-01-29T04:51:43.576Z,951.6
2023-01-29T04:52:45.430Z,951.6
2023-01-29T04:53:47.280Z,951.6
2023-01-29T04:54:49.114Z,951.6
2023-01-29T04:55:50.985Z,951.6
2023-01-29T04:56:52.866Z,951.6
2023-01-29T04:57:54.780Z,951.6
2023-01-29T04:58:56.831Z,951.6
2023-01-29T04:59:58.886Z,951.6
2023-01-29T05:01:00.738Z,951.6
2023-01-29T05:02:02.932Z,951.6
2023-01-29T05:03:05.318Z,951.6
2023-01-29T05:04:07.207Z,951.6
2023-01-29T05:05:09.029Z,951.6
2023-01-29T05:06:10.907Z,951.6
2023-01-29T05:07:13.187Z,951.6
2023-01-29T05:08:15.008Z,951.6
2023-01-29T05:09:16.868Z,951.6
2023-01-29T05:10:20.068Z,951.6
2023-01-29T05:11:22.104Z,951.7
2023-01-29T05:12:23.961Z,951.7
2023-01-29T05:13:25.804Z,951.7
2023-01-29T05:14:27.657Z,951.7
2023-01-29T05:15:29.507Z,951.7
2023-01-29T05:16:31.352Z,951.7
2023-01-29T05:17:33.201Z,951.7
2023-01-29T05:18:35.160Z,951.7
2023-01-29T05:19:36.998Z,951.7
2023-01-29T05:20:38.848Z,951.7
2023-01-29T05:21:41.619Z,951.7
2023-01-29T05:22:43.385Z,951.7
2023-01-29T05:23:45.215Z,951.8
2023-01-29T05:24:47.177Z,951.8
2023-01-29T05:25:49.028Z,951.8
2023-01-29T05:26:50.873Z,951.8
2023-01-29T05:27:52.727Z,951.8
2023-01-29T05:28:56.618Z,951.8
2023-01-29T05:29:58.571Z,951.8
2023-01-29T05:31:00.814Z,951.8
2023-01-29T05:32:02.897Z,951.8
2023-01-29T05:33:04.733Z,951.9
2023-01-29T05:34:06.767Z,951.9
2023-01-29T05:35:08.652Z,951.9
2023-01-29T05:36:10.494Z,951.9
2023-01-29T05:37:12.347Z,951.9
2023-01-29T05:38:14.191Z,951.9
2023-01-29T05:39:16.246Z,951.9
2023-01-29T05:40:18.988Z,951.9
2023-01-29T05:41:21.176Z,951.9
2023-01-29T05:42:23.023Z,951.9
2023-01-29T05:43:24.869Z,951.9
2023-01-29T05:44:29.392Z,951.9
2023-01-29T05:45:31.343Z,951.9
2023-01-29T05:46:33.415Z,951.9
2023-01-29T05:47:35.355Z,951.9
2023-01-29T05:48:37.205Z,951.9
2023-01-29T05:49:39.351Z,951.9
2023-01-29T05:50:41.203Z,951.9
2023-01-29T05:51:43.052Z,951.9
2023-01-29T05:52:44.913Z,951.9
2023-01-29T05:53:46.755Z,951.9
2023-01-29T05:54:48.506Z,952
2023-01-29T05:55:50.370Z,952
2023-01-29T05:56:52.210Z,952
2023-01-29T05:57:54.052Z,952
2023-01-29T05:58:55.930Z,952
2023-01-29T05:59:57.863Z,952
2023-01-29T06:00:59.608Z,952
2023-01-29T06:02:01.845Z,952
2023-01-29T06:03:03.822Z,952
2023-01-29T06:04:05.793Z,952
2023-01-29T06:05:07.716Z,952
2023-01-29T06:06:09.483Z,952
2023-01-29T06:07:11.426Z,952.1
2023-01-29T06:08:13.064Z,952.1
2023-01-29T06:09:14.814Z,952.1
2023-01-29T06:10:17.867Z,952.1
2023-01-29T06:11:20.617Z,952.1
2023-01-29T06:12:22.415Z,952.2
2023-01-29T06:13:24.469Z,952.2
2023-01-29T06:14:26.358Z,952.2
2023-01-29T06:15:28.145Z,952.2
2023-01-29T06:16:30.231Z,952.2
2023-01-29T06:17:32.282Z,952.2
2023-01-29T06:18:34.129Z,952.2
2023-01-29T06:19:35.971Z,952.2
2023-01-29T06:20:37.828Z,952.2
2023-01-29T06:21:42.345Z,952.2
2023-01-29T06:22:44.300Z,952.2
2023-01-29T06:23:46.154Z,952.3
2023-01-29T06:24:48.065Z,952.3
2023-01-29T06:25:50.041Z,952.3
2023-01-29T06:26:51.890Z,952.3
2023-01-29T06:27:53.745Z,952.3
2023-01-29T06:28:55.506Z,952.3
2023-01-29T06:29:57.345Z,952.4
2023-01-29T06:31:39.575Z,952.4
2023-01-29T06:32:42.362Z,952.4
2023-01-29T06:33:44.272Z,952.4
2023-01-29T06:34:50.001Z,952.4
2023-01-29T06:35:51.971Z,952.5
2023-01-29T06:36:53.825Z,952.5
2023-01-29T06:37:55.560Z,952.5
2023-01-29T06:38:57.355Z,952.5
2023-01-29T06:39:59.330Z,952.5
2023-01-29T06:41:01.315Z,952.5
2023-01-29T06:42:03.162Z,952.5
2023-01-29T06:43:05.007Z,952.5
2023-01-29T06:44:06.851Z,952.5
2023-01-29T06:45:08.710Z,952.5
2023-01-29T06:46:10.520Z,952.5
2023-01-29T06:47:12.412Z,952.5
2023-01-29T06:48:16.848Z,952.6
2023-01-29T06:49:18.675Z,952.6
2023-01-29T06:50:20.424Z,952.6
2023-01-29T06:51:22.374Z,952.5
2023-01-29T06:52:24.114Z,952.6
2023-01-29T06:53:25.978Z,952.6
2023-01-29T06:54:27.816Z,952.6
2023-01-29T06:55:29.770Z,952.6
2023-01-29T06:56:31.716Z,952.6
2023-01-29T06:57:33.573Z,952.6
2023-01-29T06:58:35.426Z,952.6
2023-01-29T06:59:37.277Z,952.6
2023-01-29T07:00:39.238Z,952.6
2023-01-29T07:01:41.212Z,952.6
2023-01-29T07:02:43.099Z,952.6
2023-01-29T07:03:44.981Z,952.6
2023-01-29T07:04:46.822Z,952.6
2023-01-29T07:05:48.682Z,952.6
2023-01-29T07:06:50.634Z,952.6
2023-01-29T07:07:52.474Z,952.6
2023-01-29T07:08:54.220Z,952.6
2023-01-29T07:09:56.072Z,952.6
2023-01-29T07:10:58.024Z,952.6
2023-01-29T07:11:59.784Z,952.6
2023-01-29T07:13:01.631Z,952.6
2023-01-29T07:14:03.589Z,952.6
2023-01-29T07:15:05.442Z,952.6
2023-01-29T07:16:07.346Z,952.7
2023-01-29T07:17:09.352Z,952.7
2023-01-29T07:18:11.182Z,952.6
2023-01-29T07:19:13.030Z,952.7
2023-01-29T07:20:16.309Z,952.7
2023-01-29T07:21:18.794Z,952.7
2023-01-29T07:22:20.634Z,952.7
2023-01-29T07:23:22.586Z,952.7
2023-01-29T07:24:24.589Z,952.7
2023-01-29T07:25:26.605Z,952.7
2023-01-29T07:26:28.442Z,952.8
2023-01-29T07:27:30.300Z,952.8
2023-01-29T07:28:32.344Z,952.8
2023-01-29T07:29:34.199Z,952.8
2023-01-29T07:30:36.049Z,952.8
2023-01-29T07:31:38.362Z,952.8
2023-01-29T07:32:40.466Z,952.8
2023-01-29T07:33:42.411Z,952.8
2023-01-29T07:34:44.261Z,952.9
2023-01-29T07:35:46.122Z,952.8
2023-01-29T07:36:47.962Z,952.9
2023-01-29T07:37:49.821Z,952.9
2023-01-29T07:38:51.874Z,952.9
2023-01-29T07:39:53.733Z,952.9
2023-01-29T07:40:55.804Z,952.9
2023-01-29T07:41:57.742Z,952.9
2023-01-29T07:42:59.587Z,952.9
2023-01-29T07:44:01.546Z,952.9
2023-01-29T07:45:03.380Z,952.9
2023-01-29T07:46:05.624Z,952.8
2023-01-29T07:47:07.714Z,952.9
2023-01-29T07:48:09.547Z,952.9
2023-01-29T07:49:11.294Z,952.9
2023-01-29T07:50:12.981Z,952.9
2023-01-29T07:51:14.789Z,952.9
2023-01-29T07:52:17.043Z,952.9
2023-01-29T07:53:18.796Z,952.9
2023-01-29T07:54:20.646Z,952.9
2023-01-29T07:55:22.489Z,953
2023-01-29T07:56:24.451Z,953
2023-01-29T07:57:26.401Z,953
2023-01-29T07:58:28.143Z,953
2023-01-29T07:59:30.102Z,953
2023-01-29T08:00:31.966Z,953
2023-01-29T08:01:33.905Z,953
2023-01-29T08:02:35.811Z,953
2023-01-29T08:03:37.605Z,953
2023-01-29T08:04:39.455Z,953
2023-01-29T08:05:41.297Z,953.1
2023-01-29T08:06:43.184Z,953
2023-01-29T08:08:07.582Z,953
2023-01-29T08:09:09.788Z,953
2023-01-29T08:10:11.641Z,953
2023-01-29T08:11:13.595Z,953
2023-01-29T08:12:15.449Z,953
2023-01-29T08:13:17.294Z,953.1
2023-01-29T08:14:19.246Z,953.1
2023-01-29T08:15:21.113Z,953.1
2023-01-29T08:16:22.983Z,953
2023-01-29T08:17:24.901Z,953.1
2023-01-29T08:18:26.748Z,953.1
2023-01-29T08:19:28.600Z,953.1
2023-01-29T08:20:30.465Z,953.1
2023-01-29T08:21:32.290Z,953.1
2023-01-29T08:22:34.156Z,953.1
2023-01-29T08:23:36.095Z,953.1
2023-01-29T08:25:08.415Z,953.1
2023-01-29T08:26:10.539Z,953.1
2023-01-29T08:27:12.382Z,953.1
2023-01-29T08:28:14.232Z,953.1
2023-01-29T08:29:16.062Z,953.1
2023-01-29T08:30:18.949Z,953.1
2023-01-29T08:31:20.963Z,953.1
2023-01-29T08:32:22.892Z,953.1
2023-01-29T08:33:39.755Z,953.1
2023-01-29T08:34:41.597Z,953.1
2023-01-29T08:35:43.453Z,953.2
2023-01-29T08:36:45.295Z,953.1
2023-01-29T08:37:47.145Z,953.2
2023-01-29T08:38:48.894Z,953.2
2023-01-29T08:39:50.727Z,953.1
2023-01-29T08:40:52.505Z,953.2
2023-01-29T08:41:54.355Z,953.2
2023-01-29T08:42:56.201Z,953.2
2023-01-29T08:43:58.056Z,953.2
2023-01-29T08:44:59.864Z,953.3
2023-01-29T08:46:01.989Z,953.2
2023-01-29T08:47:04.005Z,953.2
2023-01-29T08:48:05.960Z,953.2
2023-01-29T08:49:07.820Z,953.3
2023-01-29T08:50:09.768Z,953.3
2023-01-29T08:51:11.606Z,953.3
2023-01-29T08:52:13.290Z,953.3
2023-01-29T08:53:15.142Z,953.3
2023-01-29T08:54:16.884Z,953.3
2023-01-29T08:55:19.765Z,953.3
2023-01-29T08:56:21.584Z,953.3
2023-01-29T08:57:23.440Z,953.3
2023-01-29T08:58:25.252Z,953.4
2023-01-29T08:59:27.125Z,953.4
2023-01-29T09:00:31.637Z,953.4
2023-01-29T09:01:33.755Z,953.4
2023-01-29T09:02:35.875Z,953.4
2023-01-29T09:03:40.531Z,953.5
2023-01-29T09:04:42.326Z,953.4
2023-01-29T09:05:44.269Z,953.5
2023-01-29T09:06:46.118Z,953.4
2023-01-29T09:07:48.003Z,953.5
2023-01-29T09:08:55.054Z,953.5
2023-01-29T09:09:56.999Z,953.5
2023-01-29T09:10:58.951Z,953.5
2023-01-29T09:12:00.798Z,953.4
2023-01-29T09:13:02.639Z,953.4
2023-01-29T09:14:04.399Z,953.5
2023-01-29T09:15:06.147Z,953.4
2023-01-29T09:16:08.123Z,953.4
2023-01-29T09:17:09.946Z,953.4
2023-01-29T09:18:11.734Z,953.4
2023-01-29T09:19:13.552Z,953.4
2023-01-29T09:20:15.490Z,953.4
2023-01-29T09:21:17.445Z,953.4
2023-01-29T09:22:19.290Z,953.4
2023-01-29T09:23:21.253Z,953.5
2023-01-29T09:24:23.175Z,953.4
2023-01-29T09:25:25.056Z,953.4
2023-01-29T09:26:27.145Z,953.4
2023-01-29T09:27:29.068Z,953.4
2023-01-29T09:28:30.916Z,953.4
2023-01-29T09:29:36.335Z,953.4
2023-01-29T09:30:38.697Z,953.4
2023-01-29T09:31:41.059Z,953.4
2023-01-29T09:32:55.378Z,953.4
2023-01-29T09:33:57.263Z,953.4
2023-01-29T09:34:59.197Z,953.4
2023-01-29T09:36:01.762Z,953.4
2023-01-29T09:37:03.646Z,953.3
2023-01-29T09:38:05.478Z,953.3
2023-01-29T09:39:07.261Z,953.3
2023-01-29T09:40:09.085Z,953.4
2023-01-29T09:41:11.031Z,953.3
2023-01-29T09:42:12.787Z,953.3
2023-01-29T09:43:14.531Z,953.3
2023-01-29T09:44:16.367Z,953.3
2023-01-29T09:45:19.358Z,953.3
2023-01-29T09:46:21.634Z,953.3
2023-01-29T09:47:23.778Z,953.2
2023-01-29T09:48:25.627Z,953.2
2023-01-29T09:49:27.472Z,953.2
2023-01-29T09:50:29.147Z,953.2
2023-01-29T09:51:30.956Z,953.2
2023-01-29T09:52:32.916Z,953.3
2023-01-29T09:53:34.768Z,953.2
2023-01-29T09:54:36.726Z,953.2
2023-01-29T09:55:38.569Z,953.2
2023-01-29T09:56:40.419Z,953.2
2023-01-29T09:57:42.362Z,953.2
2023-01-29T09:58:44.182Z,953.2
2023-01-29T09:59:45.960Z,953.2
2023-01-29T10:00:47.710Z,953.2
2023-01-29T10:01:49.862Z,953.2
2023-01-29T10:02:54.568Z,953.2
2023-01-29T10:03:56.451Z,953.2
2023-01-29T10:04:58.295Z,953.2
2023-01-29T10:06:00.142Z,953.2
2023-01-29T10:07:01.984Z,953.2
2023-01-29T10:08:03.833Z,953.2
2023-01-29T10:09:05.585Z,953.1
2023-01-29T10:10:07.412Z,953.1
2023-01-29T10:11:09.382Z,953.1
2023-01-29T10:12:11.263Z,953.1
2023-01-29T10:13:13.210Z,953.1
2023-01-29T10:14:15.045Z,953.1
2023-01-29T10:15:18.105Z,953.1
2023-01-29T10:16:20.556Z,953.1
2023-01-29T10:17:22.644Z,953.1
2023-01-29T10:18:24.433Z,953.1
2023-01-29T10:19:26.353Z,953.1
2023-01-29T10:20:28.166Z,953.1
2023-01-29T10:21:29.969Z,953
2023-01-29T10:22:31.789Z,953
2023-01-29T10:23:35.280Z,953
2023-01-29T10:24:37.222Z,953
2023-01-29T10:25:38.983Z,953
2023-01-29T10:26:41.201Z,953
2023-01-29T10:27:43.183Z,953
2023-01-29T10:28:44.944Z,953
2023-01-29T10:29:46.784Z,953
2023-01-29T10:30:48.947Z,953
2023-01-29T10:31:51.440Z,953
2023-01-29T10:32:53.464Z,953
2023-01-29T10:34:03.495Z,953
2023-01-29T10:35:05.251Z,953
2023-01-29T10:36:07.107Z,953
2023-01-29T10:37:09.148Z,952.9
2023-01-29T10:38:10.949Z,952.9
2023-01-29T10:39:12.759Z,952.9
2023-01-29T10:40:14.700Z,952.9
2023-01-29T10:41:16.549Z,952.9
2023-01-29T10:42:18.509Z,952.9
2023-01-29T10:43:20.364Z,952.9
2023-01-29T10:44:22.208Z,952.9
2023-01-29T10:45:24.049Z,952.9
2023-01-29T10:46:25.809Z,952.9
2023-01-29T10:47:31.079Z,952.9
2023-01-29T10:48:36.055Z,952.9
2023-01-29T10:49:37.886Z,952.9
2023-01-29T10:50:39.755Z,952.9
2023-01-29T10:51:41.602Z,952.9
2023-01-29T10:52:43.461Z,952.9
2023-01-29T10:53:45.415Z,952.9
2023-01-29T10:54:47.256Z,952.8
2023-01-29T10:55:49.216Z,952.8
2023-01-29T10:56:51.076Z,952.8
2023-01-29T10:57:52.917Z,952.8
2023-01-29T10:58:54.670Z,952.8
2023-01-29T10:59:56.486Z,952.8
2023-01-29T11:00:58.353Z,952.8
2023-01-29T11:02:00.580Z,952.8
2023-01-29T11:03:03.073Z,952.8
2023-01-29T11:04:05.962Z,952.7
2023-01-29T11:05:10.572Z,952.8
2023-01-29T11:06:12.426Z,952.8
2023-01-29T11:07:14.391Z,952.8
2023-01-29T11:08:16.283Z,952.8
2023-01-29T11:09:18.181Z,952.8
2023-01-29T11:10:20.295Z,952.8
2023-01-29T11:11:22.186Z,952.8
2023-01-29T11:12:24.438Z,952.8
2023-01-29T11:13:28.755Z,952.7
2023-01-29T11:14:30.707Z,952.7
2023-01-29T11:15:32.560Z,952.7
2023-01-29T11:16:34.398Z,952.7
2023-01-29T11:17:36.261Z,952.7
2023-01-29T11:18:38.113Z,952.7
2023-01-29T11:19:40.052Z,952.7
2023-01-29T11:20:41.804Z,952.7
2023-01-29T11:21:43.652Z,952.7
2023-01-29T11:22:45.609Z,952.7
2023-01-29T11:23:47.463Z,952.7
2023-01-29T11:24:49.199Z,952.7
2023-01-29T11:25:50.957Z,952.7
2023-01-29T11:26:52.807Z,952.7
2023-01-29T11:27:54.767Z,952.7
2023-01-29T11:28:56.608Z,952.7
2023-01-29T11:29:58.346Z,952.7
2023-01-29T11:31:00.496Z,952.6
2023-01-29T11:32:02.329Z,952.6
2023-01-29T11:33:04.308Z,952.6
2023-01-29T11:34:06.166Z,952.6
2023-01-29T11:35:08.009Z,952.5
2023-01-29T11:36:09.846Z,952.5
2023-01-29T11:37:11.716Z,952.5
2023-01-29T11:38:13.566Z,952.5
2023-01-29T11:39:15.724Z,952.5
2023-01-29T11:40:18.905Z,952.5
2023-01-29T11:41:21.054Z,952.5
2023-01-29T11:42:22.912Z,952.5
2023-01-29T11:43:24.858Z,952.4
2023-01-29T11:44:26.714Z,952.4
2023-01-29T11:45:28.457Z,952.4
2023-01-29T11:46:30.568Z,952.4
2023-01-29T11:47:32.571Z,952.4
2023-01-29T11:48:34.430Z,952.4
2023-01-29T11:49:36.374Z,952.4
2023-01-29T11:50:38.245Z,952.3
2023-01-29T11:51:40.074Z,952.4
2023-01-29T11:52:41.924Z,952.4
2023-01-29T11:53:43.771Z,952.3
2023-01-29T11:54:45.510Z,952.4
2023-01-29T11:55:51.468Z,952.3
2023-01-29T11:56:53.256Z,952.3
2023-01-29T11:57:55.058Z,952.3
2023-01-29T11:58:57.018Z,952.4
2023-01-29T11:59:58.959Z,952.4
2023-01-29T12:01:00.848Z,952.4
2023-01-29T12:02:02.669Z,952.3
2023-01-29T12:03:04.552Z,952.4
2023-01-29T12:04:06.744Z,952.4
2023-01-29T12:05:08.667Z,952.4
2023-01-29T12:06:10.796Z,952.4
2023-01-29T12:07:12.731Z,952.3
2023-01-29T12:08:14.684Z,952.4
2023-01-29T12:09:17.492Z,952.3
2023-01-29T12:10:19.926Z,952.3
2023-01-29T12:11:21.739Z,952.3
2023-01-29T12:12:23.830Z,952.3
2023-01-29T12:13:25.692Z,952.3
2023-01-29T12:14:27.564Z,952.3
2023-01-29T12:15:29.381Z,952.3
2023-01-29T12:16:31.372Z,952.3
2023-01-29T12:17:33.276Z,952.3
2023-01-29T12:18:35.341Z,952.3
2023-01-29T12:19:37.295Z,952.3
2023-01-29T12:20:39.142Z,952.3
2023-01-29T12:21:41.000Z,952.3
2023-01-29T12:22:42.811Z,952.3
2023-01-29T12:23:44.695Z,952.3
2023-01-29T12:24:46.645Z,952.3
2023-01-29T12:25:48.285Z,952.3
2023-01-29T12:26:50.131Z,952.3
2023-01-29T12:27:51.850Z,952.3
2023-01-29T12:28:53.630Z,952.3
2023-01-29T12:29:55.596Z,952.3
2023-01-29T12:30:57.690Z,952.3
2023-01-29T12:31:59.606Z,952.4
2023-01-29T12:33:01.374Z,952.4
2023-01-29T12:34:03.308Z,952.4
2023-01-29T12:35:05.172Z,952.4
2023-01-29T12:36:08.728Z,952.4
2023-01-29T12:37:12.629Z,952.4
2023-01-29T12:38:14.482Z,952.4
2023-01-29T12:39:16.343Z,952.4
2023-01-29T12:40:19.485Z,952.4
2023-01-29T12:41:22.090Z,952.4
2023-01-29T12:42:24.031Z,952.4
2023-01-29T12:43:25.785Z,952.4
2023-01-29T12:44:27.532Z,952.4
2023-01-29T12:45:29.372Z,952.4
2023-01-29T12:46:31.307Z,952.4
2023-01-29T12:47:33.184Z,952.4
2023-01-29T12:48:35.040Z,952.4
2023-01-29T12:49:36.772Z,952.3
2023-01-29T12:50:38.534Z,952.3
2023-01-29T12:51:40.481Z,952.3
2023-01-29T12:52:42.232Z,952.3
2023-01-29T12:53:44.068Z,952.3
2023-01-29T12:54:46.067Z,952.3
2023-01-29T12:55:50.747Z,952.4
2023-01-29T12:56:52.709Z,952.3
2023-01-29T12:57:54.657Z,952.3
2023-01-29T12:58:56.436Z,952.3
2023-01-29T12:59:58.263Z,952.3
2023-01-29T13:01:00.365Z,952.3
2023-01-29T13:02:02.255Z,952.3
2023-01-29T13:03:04.381Z,952.3
2023-01-29T13:04:06.270Z,952.4
2023-01-29T13:05:08.106Z,952.3
2023-01-29T13:06:09.854Z,952.3
2023-01-29T13:07:12.663Z,952.3
2023-01-29T13:08:14.417Z,952.4
2023-01-29T13:09:16.224Z,952.3
2023-01-29T13:10:19.138Z,952.4
2023-01-29T13:11:21.572Z,952.3
2023-01-29T13:12:26.388Z,952.3
2023-01-29T13:13:28.172Z,952.3
2023-01-29T13:14:29.990Z,952.3
2023-01-29T13:15:31.735Z,952.3
2023-01-29T13:16:33.737Z,952.2
2023-01-29T13:17:35.746Z,952.3
2023-01-29T13:18:37.703Z,952.2
2023-01-29T13:19:39.535Z,952.2
2023-01-29T13:20:41.284Z,952.2
2023-01-29T13:21:43.136Z,952.2
2023-01-29T13:22:44.921Z,952.2
2023-01-29T13:23:47.161Z,952.2
2023-01-29T13:25:06.102Z,952.2
2023-01-29T13:26:08.405Z,952.3